North Jackson, Ohio
Current Conditions -  °F | °C
As of 8:51 AM on Friday 24 Oct 2014 (Local Time) from KYNG Reporting Station
Haze Haze  
Wind Chill: 40°   Ceiling: 21000
Heat Index: 40°   Visibility: 4mi
Dew Point: 39°   Wind: 0mph
Humidity: 97%   Direction: NA
Pressure: 30.09"   Gusts: NA
Location:  41.1°N, 80.86°W
Report Text: KYNG 241251Z 00000KT 4SM BR BKN210 OVC250 04/04 A3009 RMK AO2 SLP196 T00440039
Loading
Personal Weather Stations






























Interactive Weather Map
Tropical Storm Tracking
New forecast layout! Learn more

10-Day Weather Forecast

Advertisements
Track Severe Weather on mobile